Time;durP1;ratioP1;P1;durP2;ratioP2;P2;SDS_P1;SDS_P2;PMS_P1;PMS_P2;Temp;Humidity;BMP_temperature;BMP_pressure;BME280_temperature;BME280_humidity;BME280_pressure;Samples;Min_cycle;Max_cycle;Signal;HPM_P1;HPM_P2
2022/04/28 00:00:47;;;;;;;0.00;0.00;;;;;;;;;;1752900;28;20757;-76
2022/04/28 00:01:39;;;;;;;0.00;0.00;;;;;;;;;;1754307;28;20205;-76
2022/04/28 00:02:31;;;;;;;0.00;0.00;;;;;;;;;;1754208;28;20262;-76
2022/04/28 00:03:23;;;;;;;0.00;0.00;;;;;;;;;;1754782;28;20653;-76
2022/04/28 00:04:15;;;;;;;0.00;0.00;;;;;;;;;;1754887;28;20216;-75
2022/04/28 00:05:07;;;;;;;0.00;0.00;;;;;;;;;;1754825;28;20301;-75
2022/04/28 00:06:00;;;;;;;0.00;0.00;;;;;;;;;;1753351;28;20222;-75
2022/04/28 00:06:52;;;;;;;0.00;0.00;;;;;;;;;;1754377;28;20524;-75
2022/04/28 00:07:46;;;;;;;0.00;0.00;;;;;;;;;;1754482;28;20205;-75
2022/04/28 00:08:39;;;;;;;0.00;0.00;;;;;;;;;;1754275;28;20247;-75
2022/04/28 00:09:30;;;;;;;0.00;0.00;;;;;;;;;;1755047;28;20273;-75
2022/04/28 00:10:23;;;;;;;0.00;0.00;;;;;;;;;;1752247;28;20198;-75
2022/04/28 00:11:14;;;;;;;0.00;0.00;;;;;;;;;;1754986;28;20284;-75
2022/04/28 00:12:10;;;;;;;0.00;0.00;;;;;;;;;;1754380;28;20560;-76
2022/04/28 00:13:01;;;;;;;0.00;0.00;;;;;;;;;;1755144;28;20625;-76
2022/04/28 00:13:53;;;;;;;0.00;0.00;;;;;;;;;;1753981;28;20659;-76
2022/04/28 00:14:45;;;;;;;0.00;0.00;;;;;;;;;;1755030;28;20213;-76
2022/04/28 00:15:37;;;;;;;0.00;0.00;;;;;;;;;;1753050;28;20259;-76
2022/04/28 00:16:28;;;;;;;0.00;0.00;;;;;;;;;;1752677;28;20546;-76
2022/04/28 00:17:20;;;;;;;0.00;0.00;;;;;;;;;;1754837;28;20197;-76
2022/04/28 00:18:12;;;;;;;0.00;0.00;;;;;;;;;;1754632;28;20201;-76
2022/04/28 00:19:04;;;;;;;0.00;0.00;;;;;;;;;;1754678;28;20198;-76
2022/04/28 00:19:56;;;;;;;0.00;0.00;;;;;;;;;;1754272;28;20881;-76
2022/04/28 00:20:48;;;;;;;0.00;0.00;;;;;;;;;;1752570;28;20237;-76
2022/04/28 00:21:40;;;;;;;0.00;0.00;;;;;;;;;;1754601;28;20217;-76
2022/04/28 00:22:32;;;;;;;0.00;0.00;;;;;;;;;;1754819;28;20548;-76
2022/04/28 00:23:24;;;;;;;0.00;0.00;;;;;;;;;;1754521;28;20797;-76
2022/04/28 00:24:16;;;;;;;0.00;0.00;;;;;;;;;;1754891;28;20572;-76
2022/04/28 00:25:08;;;;;;;0.00;0.00;;;;;;;;;;1754631;28;20232;-76
2022/04/28 00:25:59;;;;;;;0.00;0.00;;;;;;;;;;1752627;28;20290;-76
2022/04/28 00:26:51;;;;;;;0.00;0.00;;;;;;;;;;1753446;28;20201;-75
2022/04/28 00:27:44;;;;;;;0.00;0.00;;;;;;;;;;1754695;28;20214;-75
2022/04/28 00:28:35;;;;;;;0.00;0.00;;;;;;;;;;1754371;28;20231;-76
2022/04/28 00:29:27;;;;;;;0.00;0.00;;;;;;;;;;1755041;28;20301;-76
2022/04/28 00:30:19;;;;;;;0.00;0.00;;;;;;;;;;1752467;28;20797;-76
2022/04/28 00:31:10;;;;;;;0.00;0.00;;;;;;;;;;1755326;28;20209;-76
2022/04/28 00:32:02;;;;;;;0.00;0.00;;;;;;;;;;1754582;28;20205;-76
2022/04/28 00:32:54;;;;;;;0.00;0.00;;;;;;;;;;1754447;28;20198;-76
2022/04/28 00:33:48;;;;;;;0.00;0.00;;;;;;;;;;1753948;28;20205;-75
2022/04/28 00:34:40;;;;;;;0.00;0.00;;;;;;;;;;1749251;28;20201;-75
2022/04/28 00:35:31;;;;;;;0.00;0.00;;;;;;;;;;1753099;28;20233;-76
2022/04/28 00:36:23;;;;;;;0.00;0.00;;;;;;;;;;1754733;28;20186;-75
2022/04/28 00:37:15;;;;;;;0.00;0.00;;;;;;;;;;1754196;28;20228;-75
2022/04/28 00:38:08;;;;;;;0.00;0.00;;;;;;;;;;1754779;28;20595;-76
2022/04/28 00:38:59;;;;;;;0.00;0.00;;;;;;;;;;1753926;28;20202;-75
2022/04/28 00:39:52;;;;;;;0.00;0.00;;;;;;;;;;1754157;28;20193;-75
2022/04/28 00:40:44;;;;;;;0.00;0.00;;;;;;;;;;1752927;28;20217;-76
2022/04/28 00:41:36;;;;;;;0.00;0.00;;;;;;;;;;1754428;28;20742;-76
2022/04/28 00:42:28;;;;;;;0.00;0.00;;;;;;;;;;1754776;28;20205;-76
2022/04/28 00:43:26;;;;;;;0.00;0.00;;;;;;;;;;1751626;28;20201;-76
2022/04/28 00:44:17;;;;;;;0.00;0.00;;;;;;;;;;1747725;28;20210;-76
2022/04/28 00:45:09;;;;;;;0.00;0.00;;;;;;;;;;1747399;28;20659;-76
2022/04/28 00:46:01;;;;;;;0.00;0.00;;;;;;;;;;1747161;28;20238;-76
2022/04/28 00:46:52;;;;;;;0.00;0.00;;;;;;;;;;1748068;28;20281;-76
2022/04/28 00:51:14;;;;;;;0.00;0.00;;;;;;;;;;1729159;28;20245;-76
2022/04/28 00:52:07;;;;;;;0.00;0.00;;;;;;;;;;1744078;28;20545;-76
2022/04/28 00:53:00;;;;;;;0.00;0.00;;;;;;;;;;1740509;28;20274;-76
2022/04/28 00:53:52;;;;;;;0.00;0.00;;;;;;;;;;1747571;28;20195;-75
2022/04/28 00:54:46;;;;;;;0.00;0.00;;;;;;;;;;1745423;28;20864;-76
2022/04/28 00:55:37;;;;;;;0.00;0.00;;;;;;;;;;1742124;28;20844;-76
2022/04/28 00:56:30;;;;;;;0.00;0.00;;;;;;;;;;1743108;28;20223;-76
2022/04/28 00:57:21;;;;;;;0.00;0.00;;;;;;;;;;1750305;28;20504;-76
2022/04/28 00:58:13;;;;;;;0.00;0.00;;;;;;;;;;1747399;28;20206;-75
2022/04/28 00:59:05;;;;;;;0.00;0.00;;;;;;;;;;1750391;28;20235;-75
2022/04/28 00:59:57;;;;;;;0.00;0.00;;;;;;;;;;1746821;28;20843;-75
2022/04/28 01:00:49;;;;;;;0.00;0.00;;;;;;;;;;1748706;28;20230;-75
2022/04/28 01:01:41;;;;;;;0.00;0.00;;;;;;;;;;1747635;28;20256;-76
2022/04/28 01:02:34;;;;;;;0.00;0.00;;;;;;;;;;1750388;28;20206;-76
2022/04/28 01:03:30;;;;;;;0.00;0.00;;;;;;;;;;1747999;28;20202;-75
2022/04/28 01:04:21;;;;;;;0.00;0.00;;;;;;;;;;1747721;28;20217;-75
2022/04/28 01:05:13;;;;;;;0.00;0.00;;;;;;;;;;1747523;28;20218;-76
2022/04/28 01:06:04;;;;;;;0.00;0.00;;;;;;;;;;1747922;28;20269;-75
2022/04/28 01:06:57;;;;;;;0.00;0.00;;;;;;;;;;1748766;28;20755;-75
2022/04/28 01:07:48;;;;;;;0.00;0.00;;;;;;;;;;1747563;28;20850;-75
2022/04/28 01:08:40;;;;;;;0.00;0.00;;;;;;;;;;1747569;28;20230;-75
2022/04/28 01:09:36;;;;;;;0.00;0.00;;;;;;;;;;1747728;28;20221;-76
2022/04/28 01:10:28;;;;;;;0.00;0.00;;;;;;;;;;1742918;28;20925;-76
2022/04/28 01:11:20;;;;;;;0.00;0.00;;;;;;;;;;1744532;28;20202;-75
2022/04/28 01:12:14;;;;;;;0.00;0.00;;;;;;;;;;1750015;28;20201;-75
2022/04/28 01:13:05;;;;;;;0.00;0.00;;;;;;;;;;1747001;28;20229;-76
2022/04/28 01:13:58;;;;;;;0.00;0.00;;;;;;;;;;1750448;28;20262;-76
2022/04/28 01:14:50;;;;;;;0.00;0.00;;;;;;;;;;1747389;28;20198;-76
2022/04/28 01:15:46;;;;;;;0.00;0.00;;;;;;;;;;1745512;28;20237;-76
2022/04/28 01:16:37;;;;;;;0.00;0.00;;;;;;;;;;1747242;28;20259;-75
2022/04/28 01:17:29;;;;;;;0.00;0.00;;;;;;;;;;1750110;28;20202;-75
2022/04/28 01:18:20;;;;;;;0.03;0.03;;;;;;;;;;1747618;28;20215;-75
2022/04/28 01:19:12;;;;;;;0.00;0.00;;;;;;;;;;1749648;28;20257;-75
2022/04/28 01:20:04;;;;;;;0.00;0.00;;;;;;;;;;1747348;28;20209;-75
2022/04/28 01:20:56;;;;;;;0.00;0.00;;;;;;;;;;1746230;28;20321;-75
2022/04/28 01:21:51;;;;;;;0.00;0.00;;;;;;;;;;1747920;28;20199;-75
2022/04/28 01:22:43;;;;;;;0.03;0.03;;;;;;;;;;1749235;28;20279;-76
2022/04/28 01:23:34;;;;;;;0.00;0.00;;;;;;;;;;1746307;28;20202;-75
2022/04/28 01:24:26;;;;;;;0.00;0.00;;;;;;;;;;1747472;28;20212;-75
2022/04/28 01:25:18;;;;;;;0.10;0.10;;;;;;;;;;1746188;28;20229;-75
2022/04/28 01:26:11;;;;;;;0.00;0.00;;;;;;;;;;1747014;28;20182;-75
2022/04/28 01:27:03;;;;;;;0.00;0.00;;;;;;;;;;1748830;28;20207;-75
2022/04/28 01:27:55;;;;;;;0.00;0.00;;;;;;;;;;1747232;28;20201;-76
2022/04/28 01:28:48;;;;;;;0.00;0.00;;;;;;;;;;1747320;28;20214;-75
2022/04/28 01:29:40;;;;;;;0.00;0.00;;;;;;;;;;1747618;28;20634;-75
2022/04/28 01:30:33;;;;;;;0.00;0.00;;;;;;;;;;1748033;28;20244;-76
2022/04/28 01:31:26;;;;;;;0.00;0.00;;;;;;;;;;1747408;28;20602;-75
2022/04/28 01:32:17;;;;;;;0.00;0.00;;;;;;;;;;1749750;28;20201;-75
2022/04/28 01:33:09;;;;;;;0.00;0.00;;;;;;;;;;1747028;28;20232;-75
2022/04/28 01:34:00;;;;;;;0.00;0.00;;;;;;;;;;1750230;28;20205;-75
2022/04/28 01:34:52;;;;;;;0.00;0.00;;;;;;;;;;1747348;28;20529;-76
2022/04/28 01:35:43;;;;;;;0.00;0.00;;;;;;;;;;1747892;28;20220;-75
2022/04/28 01:36:36;;;;;;;0.00;0.00;;;;;;;;;;1746911;28;20340;-75
2022/04/28 01:37:28;;;;;;;0.00;0.00;;;;;;;;;;1747269;28;20202;-75
2022/04/28 01:38:20;;;;;;;0.00;0.00;;;;;;;;;;1747274;28;20789;-75
2022/04/28 01:39:11;;;;;;;0.00;0.00;;;;;;;;;;1749731;28;20209;-75
2022/04/28 01:40:06;;;;;;;0.00;0.00;;;;;;;;;;1747244;28;20299;-76
2022/04/28 01:40:57;;;;;;;0.00;0.00;;;;;;;;;;1746094;28;20672;-76
2022/04/28 01:41:49;;;;;;;0.00;0.00;;;;;;;;;;1746175;28;20202;-76
2022/04/28 01:42:41;;;;;;;0.00;0.00;;;;;;;;;;1751638;28;20620;-75
2022/04/28 01:43:33;;;;;;;0.00;0.00;;;;;;;;;;1749504;28;20340;-75
2022/04/28 01:44:25;;;;;;;0.00;0.00;;;;;;;;;;1750835;28;20209;-75
2022/04/28 01:45:17;;;;;;;0.00;0.00;;;;;;;;;;1751636;28;20225;-76
2022/04/28 01:46:09;;;;;;;0.00;0.00;;;;;;;;;;1754257;28;20905;-75
2022/04/28 01:47:01;;;;;;;0.00;0.00;;;;;;;;;;1753737;28;20201;-75
2022/04/28 01:47:53;;;;;;;0.00;0.00;;;;;;;;;;1748102;28;20194;-75
2022/04/28 01:48:44;;;;;;;0.00;0.00;;;;;;;;;;1754069;28;20294;-75
2022/04/28 01:49:36;;;;;;;0.00;0.00;;;;;;;;;;1747648;28;20237;-75
2022/04/28 01:50:27;;;;;;;0.00;0.00;;;;;;;;;;1751083;28;20213;-75
2022/04/28 01:54:59;;;;;;;0.00;0.00;;;;;;;;;;1753189;28;20747;-75
2022/04/28 01:55:52;;;;;;;0.00;0.00;;;;;;;;;;1755283;28;20672;-75
2022/04/28 01:56:44;;;;;;;0.00;0.00;;;;;;;;;;1752979;28;20289;-75
2022/04/28 01:57:37;;;;;;;0.00;0.00;;;;;;;;;;1750000;28;20217;-76
2022/04/28 01:58:29;;;;;;;0.10;0.10;;;;;;;;;;1750262;28;20197;-76
2022/04/28 01:59:20;;;;;;;0.00;0.00;;;;;;;;;;1754388;28;20206;-75
2022/04/28 02:00:13;;;;;;;0.00;0.00;;;;;;;;;;1754621;28;20196;-75
2022/04/28 02:01:04;;;;;;;0.00;0.00;;;;;;;;;;1753843;28;20230;-75
2022/04/28 02:01:56;;;;;;;0.00;0.00;;;;;;;;;;1754491;28;20217;-75
2022/04/28 02:02:48;;;;;;;0.00;0.00;;;;;;;;;;1748348;28;20206;-75
2022/04/28 02:03:40;;;;;;;0.00;0.00;;;;;;;;;;1753916;28;20296;-75
2022/04/28 02:04:31;;;;;;;0.00;0.00;;;;;;;;;;1753523;28;20649;-75
2022/04/28 02:05:24;;;;;;;0.00;0.00;;;;;;;;;;1751742;28;20231;-75
2022/04/28 02:06:16;;;;;;;0.00;0.00;;;;;;;;;;1753985;28;20231;-76
2022/04/28 02:07:08;;;;;;;0.00;0.00;;;;;;;;;;1754806;28;20207;-75
2022/04/28 02:08:01;;;;;;;0.00;0.00;;;;;;;;;;1748709;28;20213;-75
2022/04/28 02:08:53;;;;;;;0.00;0.00;;;;;;;;;;1753604;28;20221;-75
2022/04/28 02:09:45;;;;;;;0.00;0.00;;;;;;;;;;1754078;28;20201;-76
2022/04/28 02:10:37;;;;;;;0.00;0.00;;;;;;;;;;1752053;28;20294;-75
2022/04/28 02:11:29;;;;;;;0.10;0.10;;;;;;;;;;1753411;28;20216;-76
2022/04/28 02:12:21;;;;;;;0.00;0.00;;;;;;;;;;1752159;28;20292;-76
2022/04/28 02:13:12;;;;;;;0.00;0.00;;;;;;;;;;1750136;28;20206;-76
2022/04/28 02:14:04;;;;;;;0.00;0.00;;;;;;;;;;1753948;28;20742;-76
2022/04/28 02:14:56;;;;;;;0.00;0.00;;;;;;;;;;1753904;28;20217;-75
2022/04/28 02:15:48;;;;;;;0.00;0.00;;;;;;;;;;1753812;28;20236;-75
2022/04/28 02:16:39;;;;;;;0.00;0.00;;;;;;;;;;1753157;28;20202;-75
2022/04/28 02:17:35;;;;;;;0.00;0.00;;;;;;;;;;1749980;28;20664;-75
2022/04/28 02:18:26;;;;;;;0.00;0.00;;;;;;;;;;1748870;28;20202;-75
2022/04/28 02:19:18;;;;;;;0.00;0.00;;;;;;;;;;1748532;28;20201;-75
2022/04/28 02:20:11;;;;;;;0.00;0.00;;;;;;;;;;1753178;28;20229;-75
2022/04/28 02:21:03;;;;;;;0.00;0.00;;;;;;;;;;1752642;28;20283;-76
2022/04/28 02:21:54;;;;;;;0.00;0.00;;;;;;;;;;1753596;28;20619;-76
2022/04/28 02:22:46;;;;;;;0.00;0.00;;;;;;;;;;1754150;28;20201;-76
2022/04/28 02:23:39;;;;;;;0.00;0.00;;;;;;;;;;1753123;28;20194;-76
2022/04/28 02:24:31;;;;;;;0.00;0.00;;;;;;;;;;1753767;28;20232;-75
2022/04/28 02:25:25;;;;;;;0.00;0.00;;;;;;;;;;1751649;28;20216;-75
2022/04/28 02:26:17;;;;;;;0.10;0.10;;;;;;;;;;1753592;28;20214;-76
2022/04/28 02:27:09;;;;;;;0.00;0.00;;;;;;;;;;1752964;28;20201;-75
2022/04/28 02:28:01;;;;;;;0.00;0.00;;;;;;;;;;1754301;28;20194;-75
2022/04/28 02:28:52;;;;;;;0.00;0.00;;;;;;;;;;1756088;28;20201;-75
2022/04/28 02:29:46;;;;;;;0.10;0.10;;;;;;;;;;1753909;28;20194;-76
2022/04/28 02:30:37;;;;;;;0.10;0.10;;;;;;;;;;1751234;28;20233;-75
2022/04/28 02:31:29;;;;;;;0.00;0.00;;;;;;;;;;1753616;28;20647;-75
2022/04/28 02:32:20;;;;;;;0.00;0.00;;;;;;;;;;1753103;28;20240;-75
2022/04/28 02:33:11;;;;;;;0.00;0.00;;;;;;;;;;1753698;28;20205;-75
2022/04/28 02:34:04;;;;;;;0.00;0.00;;;;;;;;;;1752591;28;20259;-75
2022/04/28 02:34:55;;;;;;;0.00;0.00;;;;;;;;;;1753885;28;20201;-76
2022/04/28 02:35:47;;;;;;;0.00;0.00;;;;;;;;;;1752163;28;20221;-76
2022/04/28 02:36:39;;;;;;;0.00;0.00;;;;;;;;;;1754806;28;20211;-76
2022/04/28 02:37:31;;;;;;;0.10;0.10;;;;;;;;;;1753264;28;20213;-76
2022/04/28 02:38:22;;;;;;;0.00;0.00;;;;;;;;;;1753500;28;20205;-76
2022/04/28 02:39:17;;;;;;;0.00;0.00;;;;;;;;;;1754067;28;20215;-76
2022/04/28 02:40:09;;;;;;;0.00;0.00;;;;;;;;;;1753069;28;20213;-76
2022/04/28 02:41:02;;;;;;;0.00;0.00;;;;;;;;;;1752944;28;20233;-76
2022/04/28 02:41:53;;;;;;;0.00;0.00;;;;;;;;;;1753484;28;20209;-75
2022/04/28 02:42:45;;;;;;;0.00;0.00;;;;;;;;;;1754057;28;20293;-76
2022/04/28 02:43:36;;;;;;;0.00;0.00;;;;;;;;;;1752967;28;20248;-76
2022/04/28 02:44:29;;;;;;;0.00;0.00;;;;;;;;;;1753454;28;20205;-76
2022/04/28 02:45:20;;;;;;;0.00;0.00;;;;;;;;;;1751815;28;20212;-76
2022/04/28 02:46:12;;;;;;;0.00;0.00;;;;;;;;;;1754125;28;20270;-76
2022/04/28 02:47:03;;;;;;;0.00;0.00;;;;;;;;;;1753688;28;20205;-76
2022/04/28 02:47:56;;;;;;;0.00;0.00;;;;;;;;;;1754021;28;20612;-76
2022/04/28 02:48:48;;;;;;;0.00;0.00;;;;;;;;;;1755464;28;20212;-76
2022/04/28 02:49:40;;;;;;;0.10;0.10;;;;;;;;;;1754143;28;20244;-76
2022/04/28 02:50:31;;;;;;;0.00;0.00;;;;;;;;;;1751207;28;20242;-76
2022/04/28 02:51:23;;;;;;;0.00;0.00;;;;;;;;;;1753064;28;20194;-76
2022/04/28 02:52:14;;;;;;;0.00;0.00;;;;;;;;;;1753438;28;20210;-76
2022/04/28 02:53:06;;;;;;;0.00;0.00;;;;;;;;;;1753905;28;20194;-76
2022/04/28 02:53:58;;;;;;;0.00;0.00;;;;;;;;;;1753301;28;20193;-76
2022/04/28 02:54:51;;;;;;;0.00;0.00;;;;;;;;;;1754201;28;20293;-76
2022/04/28 02:55:42;;;;;;;0.00;0.00;;;;;;;;;;1752675;28;20252;-76
2022/04/28 02:56:35;;;;;;;0.00;0.00;;;;;;;;;;1752784;28;20198;-76
2022/04/28 02:57:26;;;;;;;0.00;0.00;;;;;;;;;;1753603;28;20210;-76
2022/04/28 02:58:18;;;;;;;0.00;0.00;;;;;;;;;;1753815;28;20243;-76
2022/04/28 02:59:10;;;;;;;0.00;0.00;;;;;;;;;;1752851;28;20201;-75
2022/04/28 03:00:04;;;;;;;0.00;0.00;;;;;;;;;;1753637;28;20670;-75
2022/04/28 03:00:55;;;;;;;0.00;0.00;;;;;;;;;;1752634;28;20236;-75
2022/04/28 03:01:47;;;;;;;0.00;0.00;;;;;;;;;;1753529;28;20249;-75
2022/04/28 03:02:39;;;;;;;0.00;0.00;;;;;;;;;;1753961;28;20247;-75
2022/04/28 03:03:31;;;;;;;0.00;0.00;;;;;;;;;;1753204;28;20244;-75
2022/04/28 03:04:25;;;;;;;0.10;0.10;;;;;;;;;;1754119;28;20205;-75
2022/04/28 03:05:17;;;;;;;0.00;0.00;;;;;;;;;;1751685;28;20626;-75
2022/04/28 03:10:50;;;;;;;0.00;0.00;;;;;;;;;;1753718;28;20760;-75
2022/04/28 03:11:41;;;;;;;0.00;0.00;;;;;;;;;;1752124;28;20300;-75
2022/04/28 03:12:37;;;;;;;0.00;0.00;;;;;;;;;;1754945;28;20217;-75
2022/04/28 03:13:28;;;;;;;0.00;0.00;;;;;;;;;;1754741;28;20237;-75
2022/04/28 03:14:21;;;;;;;0.03;0.03;;;;;;;;;;1755489;28;20197;-75
2022/04/28 03:15:12;;;;;;;0.00;0.00;;;;;;;;;;1754156;28;20220;-75
2022/04/28 03:16:04;;;;;;;0.00;0.00;;;;;;;;;;1754218;28;20236;-75
2022/04/28 03:16:56;;;;;;;0.00;0.00;;;;;;;;;;1754824;28;20217;-75
2022/04/28 03:17:50;;;;;;;0.00;0.00;;;;;;;;;;1755298;28;20283;-75
2022/04/28 03:18:41;;;;;;;0.00;0.00;;;;;;;;;;1754713;28;20566;-75
2022/04/28 03:19:33;;;;;;;0.00;0.00;;;;;;;;;;1755296;28;20224;-75
2022/04/28 03:20:25;;;;;;;0.00;0.00;;;;;;;;;;1753304;28;20740;-75
2022/04/28 03:21:17;;;;;;;0.00;0.00;;;;;;;;;;1755613;28;20268;-75
2022/04/28 03:22:09;;;;;;;0.00;0.00;;;;;;;;;;1755962;28;20205;-75
2022/04/28 03:23:01;;;;;;;0.00;0.00;;;;;;;;;;1753608;28;20190;-75
2022/04/28 03:23:52;;;;;;;0.00;0.00;;;;;;;;;;1754618;28;20197;-75
2022/04/28 03:24:44;;;;;;;0.00;0.00;;;;;;;;;;1755140;28;20221;-75
2022/04/28 03:25:35;;;;;;;0.00;0.00;;;;;;;;;;1754997;28;20260;-75
2022/04/28 03:26:29;;;;;;;0.00;0.00;;;;;;;;;;1754497;28;21178;-75
2022/04/28 03:27:21;;;;;;;0.00;0.00;;;;;;;;;;1754596;28;20252;-75
2022/04/28 03:28:13;;;;;;;0.00;0.00;;;;;;;;;;1756006;28;20211;-75
2022/04/28 03:29:04;;;;;;;0.00;0.00;;;;;;;;;;1754763;28;20202;-75
2022/04/28 03:29:56;;;;;;;0.00;0.00;;;;;;;;;;1754275;28;20259;-75
2022/04/28 03:30:48;;;;;;;0.00;0.00;;;;;;;;;;1753791;28;20237;-75
2022/04/28 03:31:40;;;;;;;0.00;0.00;;;;;;;;;;1754999;28;20288;-75
2022/04/28 03:32:31;;;;;;;0.10;0.10;;;;;;;;;;1755246;28;20228;-75
2022/04/28 03:33:23;;;;;;;0.00;0.00;;;;;;;;;;1755172;28;20643;-75
2022/04/28 03:34:15;;;;;;;0.00;0.00;;;;;;;;;;1755238;28;20220;-75
2022/04/28 03:35:09;;;;;;;0.00;0.00;;;;;;;;;;1754724;28;20197;-75
2022/04/28 03:36:00;;;;;;;0.00;0.00;;;;;;;;;;1752938;28;20225;-75
2022/04/28 03:36:53;;;;;;;0.00;0.00;;;;;;;;;;1754813;28;20212;-75
2022/04/28 03:37:47;;;;;;;0.00;0.00;;;;;;;;;;1755437;28;20717;-75
2022/04/28 03:38:39;;;;;;;0.00;0.00;;;;;;;;;;1754710;28;20209;-75
2022/04/28 03:39:31;;;;;;;0.00;0.00;;;;;;;;;;1754317;28;20228;-75
2022/04/28 03:40:25;;;;;;;0.00;0.00;;;;;;;;;;1753940;28;20196;-75
2022/04/28 03:41:18;;;;;;;0.00;0.00;;;;;;;;;;1748347;28;20218;-75
2022/04/28 03:42:10;;;;;;;0.00;0.00;;;;;;;;;;1753242;28;20201;-75
2022/04/28 03:43:03;;;;;;;0.10;0.10;;;;;;;;;;1754805;28;20194;-75
2022/04/28 03:43:54;;;;;;;0.00;0.00;;;;;;;;;;1754544;28;20249;-75
2022/04/28 03:44:46;;;;;;;0.00;0.00;;;;;;;;;;1755115;28;20225;-75
2022/04/28 03:45:38;;;;;;;0.00;0.00;;;;;;;;;;1753497;28;20229;-75
2022/04/28 03:46:30;;;;;;;0.00;0.00;;;;;;;;;;1754630;28;20321;-75
2022/04/28 03:47:21;;;;;;;0.10;0.10;;;;;;;;;;1754360;28;20205;-75
2022/04/28 03:48:14;;;;;;;0.00;0.00;;;;;;;;;;1754979;28;20213;-75
2022/04/28 03:49:05;;;;;;;0.00;0.00;;;;;;;;;;1754422;28;20992;-75
2022/04/28 03:49:57;;;;;;;0.10;0.10;;;;;;;;;;1754722;28;20212;-75
2022/04/28 03:50:48;;;;;;;0.00;0.00;;;;;;;;;;1753724;28;20236;-75
2022/04/28 03:51:40;;;;;;;0.00;0.00;;;;;;;;;;1754777;28;20224;-75
2022/04/28 03:52:31;;;;;;;0.00;0.00;;;;;;;;;;1755139;28;20205;-75
2022/04/28 03:53:24;;;;;;;0.00;0.00;;;;;;;;;;1755020;28;20730;-75
2022/04/28 03:54:15;;;;;;;0.10;0.10;;;;;;;;;;1755470;28;20350;-75
2022/04/28 03:55:09;;;;;;;0.00;0.00;;;;;;;;;;1753843;28;20531;-75
2022/04/28 03:56:00;;;;;;;0.00;0.00;;;;;;;;;;1750794;28;20321;-75
2022/04/28 03:56:52;;;;;;;0.00;0.00;;;;;;;;;;1756629;28;20224;-75
2022/04/28 03:57:45;;;;;;;0.00;0.00;;;;;;;;;;1755212;28;20202;-76
2022/04/28 03:58:37;;;;;;;0.00;0.00;;;;;;;;;;1755348;28;20316;-76
2022/04/28 03:59:28;;;;;;;0.10;0.10;;;;;;;;;;1754893;28;20212;-76
2022/04/28 04:00:20;;;;;;;0.10;0.10;;;;;;;;;;1752486;28;20580;-76
2022/04/28 04:01:12;;;;;;;0.17;0.17;;;;;;;;;;1755427;28;20205;-76
2022/04/28 04:02:04;;;;;;;0.00;0.00;;;;;;;;;;1754280;28;20198;-76
2022/04/28 04:02:55;;;;;;;0.10;0.10;;;;;;;;;;1747745;28;20566;-76
2022/04/28 04:03:47;;;;;;;0.00;0.00;;;;;;;;;;1753542;28;20204;-76
2022/04/28 04:04:39;;;;;;;0.00;0.00;;;;;;;;;;1755207;28;20603;-76
2022/04/28 04:05:32;;;;;;;0.00;0.00;;;;;;;;;;1753086;28;20714;-76
2022/04/28 04:06:23;;;;;;;0.00;0.00;;;;;;;;;;1754941;28;20221;-75
2022/04/28 04:07:15;;;;;;;0.00;0.00;;;;;;;;;;1754459;28;20205;-75
2022/04/28 04:08:07;;;;;;;0.00;0.00;;;;;;;;;;1754530;28;20209;-76
2022/04/28 04:08:59;;;;;;;0.32;0.32;;;;;;;;;;1754185;28;20239;-76
2022/04/28 04:09:50;;;;;;;0.20;0.20;;;;;;;;;;1754623;28;20205;-76
2022/04/28 04:10:42;;;;;;;0.00;0.00;;;;;;;;;;1753260;28;20252;-76
2022/04/28 04:11:33;;;;;;;0.00;0.00;;;;;;;;;;1755768;28;20906;-76
2022/04/28 04:12:26;;;;;;;0.05;0.05;;;;;;;;;;1754125;28;20203;-76
2022/04/28 04:13:19;;;;;;;0.00;0.00;;;;;;;;;;1749379;28;20206;-76
2022/04/28 04:14:11;;;;;;;0.00;0.00;;;;;;;;;;1754068;28;20262;-75
2022/04/28 04:15:03;;;;;;;0.00;0.00;;;;;;;;;;1754823;28;20201;-75
2022/04/28 04:15:55;;;;;;;0.03;0.03;;;;;;;;;;1753079;28;20229;-75
2022/04/28 04:16:46;;;;;;;0.05;0.05;;;;;;;;;;1754327;28;20202;-75
2022/04/28 04:17:42;;;;;;;0.00;0.00;;;;;;;;;;1754941;28;20209;-75
2022/04/28 04:18:33;;;;;;;0.00;0.00;;;;;;;;;;1754551;28;20221;-75
2022/04/28 04:19:25;;;;;;;0.00;0.00;;;;;;;;;;1755142;28;20208;-75
2022/04/28 04:20:16;;;;;;;0.00;0.00;;;;;;;;;;1751958;28;20554;-75
2022/04/28 04:21:09;;;;;;;0.00;0.00;;;;;;;;;;1755211;28;20655;-75
2022/04/28 04:22:00;;;;;;;0.03;0.03;;;;;;;;;;1753962;28;20197;-75
2022/04/28 04:22:53;;;;;;;0.10;0.10;;;;;;;;;;1755049;28;20193;-75
2022/04/28 04:23:44;;;;;;;0.10;0.10;;;;;;;;;;1754602;28;20214;-76
2022/04/28 04:24:36;;;;;;;0.00;0.00;;;;;;;;;;1755111;28;20220;-76
2022/04/28 04:25:27;;;;;;;0.00;0.00;;;;;;;;;;1752974;28;20205;-75
2022/04/28 04:26:19;;;;;;;0.10;0.10;;;;;;;;;;1753620;28;20282;-75
2022/04/28 04:27:11;;;;;;;0.00;0.00;;;;;;;;;;1754345;28;20221;-75
2022/04/28 04:28:04;;;;;;;0.00;0.00;;;;;;;;;;1751931;28;20213;-75
2022/04/28 04:28:57;;;;;;;0.00;0.00;;;;;;;;;;1754132;28;20201;-75
2022/04/28 04:29:49;;;;;;;0.10;0.10;;;;;;;;;;1754495;28;20807;-75
2022/04/28 04:33:00;;;;;;;0.00;0.00;;;;;;;;;;1755011;28;20181;-75
2022/04/28 04:33:52;;;;;;;0.00;0.00;;;;;;;;;;1754283;28;20205;-75
2022/04/28 04:34:44;;;;;;;0.00;0.00;;;;;;;;;;1754284;28;20213;-76
2022/04/28 04:35:36;;;;;;;0.00;0.00;;;;;;;;;;1752416;28;21060;-75
2022/04/28 04:36:27;;;;;;;0.00;0.00;;;;;;;;;;1754040;28;20205;-75
2022/04/28 04:37:20;;;;;;;0.00;0.00;;;;;;;;;;1753986;28;20197;-75
2022/04/28 04:38:11;;;;;;;0.00;0.00;;;;;;;;;;1754938;28;20265;-76
2022/04/28 04:39:03;;;;;;;0.00;0.00;;;;;;;;;;1755467;28;20195;-75
2022/04/28 04:39:54;;;;;;;0.10;0.10;;;;;;;;;;1754097;28;20209;-76
2022/04/28 04:40:47;;;;;;;0.00;0.00;;;;;;;;;;1753675;28;20269;-76
2022/04/28 04:41:38;;;;;;;0.00;0.00;;;;;;;;;;1754178;28;20539;-76
2022/04/28 04:42:30;;;;;;;0.10;0.10;;;;;;;;;;1754726;28;20209;-75
2022/04/28 04:43:21;;;;;;;0.00;0.00;;;;;;;;;;1755011;28;20775;-76
2022/04/28 04:44:15;;;;;;;0.10;0.10;;;;;;;;;;1755621;28;20300;-76
2022/04/28 04:45:07;;;;;;;0.00;0.00;;;;;;;;;;1748940;28;20795;-76
2022/04/28 04:45:59;;;;;;;0.00;0.00;;;;;;;;;;1747163;28;20226;-76
2022/04/28 04:46:50;;;;;;;0.10;0.10;;;;;;;;;;1755317;28;20222;-75
2022/04/28 04:47:42;;;;;;;0.00;0.00;;;;;;;;;;1756347;28;20198;-76
2022/04/28 04:48:33;;;;;;;0.00;0.00;;;;;;;;;;1750417;28;20202;-76
2022/04/28 04:49:26;;;;;;;0.00;0.00;;;;;;;;;;1752429;28;20244;-76
2022/04/28 04:50:17;;;;;;;0.00;0.00;;;;;;;;;;1754635;28;20201;-76
2022/04/28 04:51:09;;;;;;;0.00;0.00;;;;;;;;;;1754966;28;20197;-76
2022/04/28 04:52:02;;;;;;;0.00;0.00;;;;;;;;;;1757155;28;20197;-76
2022/04/28 04:52:54;;;;;;;0.00;0.00;;;;;;;;;;1755286;28;20877;-76
2022/04/28 04:53:45;;;;;;;0.10;0.10;;;;;;;;;;1755002;28;20198;-76
2022/04/28 04:54:37;;;;;;;0.00;0.00;;;;;;;;;;1754569;28;20202;-74
2022/04/28 04:55:28;;;;;;;0.03;0.03;;;;;;;;;;1753841;28;20232;-74
2022/04/28 04:56:20;;;;;;;0.00;0.00;;;;;;;;;;1752567;28;20232;-75
2022/04/28 04:57:12;;;;;;;0.10;0.10;;;;;;;;;;1757689;28;20227;-75
2022/04/28 04:58:04;;;;;;;0.00;0.00;;;;;;;;;;1754966;28;20658;-76
2022/04/28 04:58:55;;;;;;;0.00;0.00;;;;;;;;;;1756339;28;20519;-76
2022/04/28 04:59:49;;;;;;;0.00;0.00;;;;;;;;;;1754371;28;20317;-76
2022/04/28 05:00:40;;;;;;;0.00;0.00;;;;;;;;;;1743998;28;20233;-76
2022/04/28 05:01:32;;;;;;;0.00;0.00;;;;;;;;;;1752763;28;20216;-75
2022/04/28 05:02:23;;;;;;;0.00;0.00;;;;;;;;;;1756510;28;20211;-75
2022/04/28 05:03:16;;;;;;;0.00;0.00;;;;;;;;;;1760084;28;20696;-75
2022/04/28 05:04:07;;;;;;;0.00;0.00;;;;;;;;;;1754273;28;20208;-76
2022/04/28 05:05:00;;;;;;;0.00;0.00;;;;;;;;;;1753070;28;20221;-76
2022/04/28 05:05:52;;;;;;;0.00;0.00;;;;;;;;;;1750375;28;20274;-76
2022/04/28 05:06:44;;;;;;;0.10;0.10;;;;;;;;;;1751784;28;20232;-76
2022/04/28 05:07:36;;;;;;;0.00;0.00;;;;;;;;;;1753396;28;20624;-76
2022/04/28 05:08:28;;;;;;;0.00;0.00;;;;;;;;;;1751869;28;20202;-76
2022/04/28 05:09:19;;;;;;;0.00;0.00;;;;;;;;;;1749572;28;20205;-76
2022/04/28 05:10:11;;;;;;;0.00;0.00;;;;;;;;;;1754486;28;20201;-76
2022/04/28 05:11:03;;;;;;;0.00;0.00;;;;;;;;;;1755252;28;20674;-75
2022/04/28 05:11:55;;;;;;;0.00;0.00;;;;;;;;;;1757429;28;20221;-76
2022/04/28 05:12:46;;;;;;;0.00;0.00;;;;;;;;;;1753934;28;20213;-76
2022/04/28 05:13:38;;;;;;;0.00;0.00;;;;;;;;;;1746801;28;20201;-76
2022/04/28 05:14:29;;;;;;;0.00;0.00;;;;;;;;;;1752385;28;20208;-76
2022/04/28 05:15:26;;;;;;;0.00;0.00;;;;;;;;;;1753634;28;20197;-76
2022/04/28 05:16:17;;;;;;;0.00;0.00;;;;;;;;;;1747552;28;20214;-76
2022/04/28 05:17:09;;;;;;;0.00;0.00;;;;;;;;;;1757603;28;20197;-76
2022/04/28 05:18:00;;;;;;;0.00;0.00;;;;;;;;;;1754659;28;20212;-76
2022/04/28 05:18:52;;;;;;;0.00;0.00;;;;;;;;;;1752159;28;20284;-76
2022/04/28 05:19:43;;;;;;;0.00;0.00;;;;;;;;;;1753825;28;20198;-76
2022/04/28 05:20:36;;;;;;;0.00;0.00;;;;;;;;;;1748411;28;20229;-76
2022/04/28 05:21:27;;;;;;;0.00;0.00;;;;;;;;;;1752598;28;20539;-76
2022/04/28 05:22:19;;;;;;;0.00;0.00;;;;;;;;;;1756147;28;20258;-76
2022/04/28 05:23:10;;;;;;;0.10;0.10;;;;;;;;;;1754839;28;20198;-77
2022/04/28 05:24:02;;;;;;;0.00;0.00;;;;;;;;;;1753329;28;20558;-77
2022/04/28 05:24:54;;;;;;;0.08;0.08;;;;;;;;;;1753020;28;20208;-77
2022/04/28 05:25:46;;;;;;;0.00;0.00;;;;;;;;;;1754821;28;20678;-77
2022/04/28 05:26:37;;;;;;;0.00;0.00;;;;;;;;;;1749908;28;20210;-76